Time;durP1;ratioP1;P1;durP2;ratioP2;P2;SDS_P1;SDS_P2;PMS_P1;PMS_P2;Temp;Humidity;BMP_temperature;BMP_pressure;BME280_temperature;BME280_humidity;BME280_pressure;Samples;Min_cycle;Max_cycle;Signal;HPM_P1;HPM_P2
2022/02/09 00:04:00;;;;;;;9.23;6.03;;;7.40;96.70;;;;;;5137169;27;20042;-78
2022/02/09 00:09:10;;;;;;;9.32;6.65;;;7.30;96.70;;;;;;5142146;27;20039;-79
2022/02/09 00:11:51;;;;;;;10.52;6.30;;;7.10;96.70;;;;;;5139490;27;20031;-79
2022/02/09 00:14:26;;;;;;;13.98;6.93;;;7.30;96.70;;;;;;5120782;27;20134;-79
2022/02/09 00:19:33;;;;;;;11.73;6.75;;;7.30;96.70;;;;;;5137008;27;20055;-78
2022/02/09 00:25:19;;;;;;;9.37;6.37;;;7.10;96.70;;;;;;5139715;27;20043;-78
2022/02/09 01:39:42;;;;;;;5.78;3.95;;;6.70;96.70;;;;;;5140819;27;20410;-78
2022/02/09 01:55:47;;;;;;;7.25;4.20;;;6.50;96.70;;;;;;5139347;27;20074;-78
2022/02/09 01:58:15;;;;;;;4.72;3.15;;;6.40;96.70;;;;;;5138398;27;20034;-78
2022/02/09 02:00:43;;;;;;;8.45;3.53;;;6.40;96.70;;;;;;5139075;27;20492;-78
2022/02/09 02:03:12;;;;;;;7.07;4.22;;;6.30;96.70;;;;;;5140028;27;20138;-79
2022/02/09 02:05:41;;;;;;;6.63;4.13;;;6.30;96.70;;;;;;5140085;27;20088;-78
2022/02/09 02:08:11;;;;;;;6.80;4.13;;;6.30;96.70;;;;;;5124213;27;20042;-78
2022/02/09 02:10:55;;;;;;;10.45;4.97;;;6.20;96.70;;;;;;5137756;27;20166;-79
2022/02/09 02:13:54;;;;;;;5.68;3.75;;;6.30;96.70;;;;;;5142756;27;20374;-78
2022/02/09 02:18:55;;;;;;;6.57;3.90;;;6.30;96.70;;;;;;5151098;27;20045;-78
2022/02/09 02:45:41;;;;;;;7.55;3.83;;;6.20;96.70;;;;;;5136307;27;20051;-78
2022/02/09 02:47:45;;;;;;;9.05;4.40;;;6.10;96.70;;;;;;5143323;27;20103;-82
2022/02/09 03:17:45;;;;;;;7.53;4.65;;;5.90;96.70;;;;;;5120678;27;20059;-79
2022/02/09 03:20:25;;;;;;;6.75;4.10;;;5.90;96.70;;;;;;5119370;27;20046;-79
2022/02/09 03:23:01;;;;;;;9.10;4.55;;;5.70;96.70;;;;;;5140147;27;20046;-79
2022/02/09 03:25:51;;;;;;;7.43;4.50;;;5.60;96.70;;;;;;5135711;27;20447;-79
2022/02/09 03:31:25;;;;;;;6.53;3.72;;;5.40;96.70;;;;;;5139537;27;20423;-79
2022/02/09 03:42:30;;;;;;;7.18;4.35;;;5.70;96.70;;;;;;5135746;27;20046;-79
2022/02/09 03:55:47;;;;;;;5.15;3.88;;;5.70;96.70;;;;;;5134257;27;20074;-79
2022/02/09 03:58:17;;;;;;;5.65;3.60;;;5.80;96.70;;;;;;5119575;27;20043;-78
2022/02/09 04:00:46;;;;;;;5.90;3.72;;;5.80;96.70;;;;;;5140518;27;20034;-78
2022/02/09 04:03:24;;;;;;;6.35;3.80;;;5.70;96.70;;;;;;5144325;27;20518;-78
2022/02/09 04:05:52;;;;;;;6.03;3.63;;;5.70;96.70;;;;;;5131730;27;20590;-79
2022/02/09 04:08:26;;;;;;;7.60;4.07;;;5.60;96.70;;;;;;5149529;27;20042;-79
2022/02/09 04:11:19;;;;;;;6.30;3.92;;;5.70;96.70;;;;;;5129323;27;20070;-78
2022/02/09 04:14:16;;;;;;;7.28;4.40;;;5.60;96.70;;;;;;5133467;27;20083;-78
2022/02/09 04:16:58;;;;;;;5.85;3.92;;;5.40;96.70;;;;;;5133043;27;20070;-79
2022/02/09 04:49:09;;;;;;;4.28;2.95;;;5.30;96.70;;;;;;5154689;27;20443;-82
2022/02/09 04:51:58;;;;;;;5.78;2.85;;;5.30;96.70;;;;;;5134776;27;20495;-82
2022/02/09 04:54:45;;;;;;;4.35;2.75;;;5.40;96.70;;;;;;5142489;27;20046;-82
2022/02/09 04:57:29;;;;;;;5.97;3.22;;;5.30;96.70;;;;;;5120418;27;20080;-82
2022/02/09 05:00:27;;;;;;;5.18;3.03;;;5.30;96.70;;;;;;5136545;27;20043;-81
2022/02/09 05:20:15;;;;;;;5.10;2.60;;;5.30;96.70;;;;;;5144934;27;20035;-82
2022/02/09 05:27:15;;;;;;;5.97;2.35;;;5.10;96.70;;;;;;5124713;27;20053;-81
2022/02/09 05:29:43;;;;;;;4.65;2.55;;;5.20;96.70;;;;;;5143178;27;20050;-82
2022/02/09 05:32:11;;;;;;;4.07;2.63;;;5.30;96.70;;;;;;5125309;27;20062;-82
2022/02/09 05:34:41;;;;;;;4.10;2.83;;;5.30;96.70;;;;;;5123697;27;20039;-82
2022/02/09 05:37:09;;;;;;;7.13;3.03;;;5.10;96.70;;;;;;5147344;27;20042;-81
2022/02/09 05:39:39;;;;;;;5.57;3.15;;;5.00;96.70;;;;;;5142511;27;20035;-81
2022/02/09 05:42:09;;;;;;;5.53;3.03;;;4.80;96.70;;;;;;5144925;27;20103;-82
2022/02/09 05:44:37;;;;;;;4.97;2.70;;;4.70;96.70;;;;;;5140868;27;20564;-81
2022/02/09 05:50:04;;;;;;;5.75;2.50;;;4.90;96.70;;;;;;5138343;27;20079;-82
2022/02/09 05:52:54;;;;;;;7.05;2.75;;;4.90;96.70;;;;;;5141746;27;20068;-82
2022/02/09 05:57:51;;;;;;;7.53;3.03;;;5.00;96.70;;;;;;5142319;27;20035;-81
2022/02/09 06:00:19;;;;;;;4.72;2.50;;;5.10;96.70;;;;;;5139683;27;20030;-83
2022/02/09 06:02:48;;;;;;;5.13;2.70;;;5.00;96.70;;;;;;5141203;27;20032;-80
2022/02/09 06:05:17;;;;;;;4.78;2.80;;;5.00;96.70;;;;;;5138196;27;20059;-81
2022/02/09 06:07:51;;;;;;;5.93;2.75;;;5.00;96.70;;;;;;5122344;27;20043;-81
2022/02/09 06:10:25;;;;;;;5.45;2.63;;;5.00;96.70;;;;;;5142529;27;20039;-81
2022/02/09 06:13:08;;;;;;;6.50;2.95;;;4.90;96.70;;;;;;5142335;27;20546;-81
2022/02/09 06:16:03;;;;;;;5.22;2.92;;;4.90;96.70;;;;;;5139090;27;20045;-81
2022/02/09 06:21:21;;;;;;;4.55;2.67;;;4.80;96.70;;;;;;5140223;27;20399;-81
2022/02/09 06:23:51;;;;;;;6.50;2.97;;;4.90;96.70;;;;;;5141698;27;20073;-81
2022/02/09 06:26:19;;;;;;;5.03;2.80;;;4.90;96.70;;;;;;5141610;27;20576;-81
2022/02/09 06:28:47;;;;;;;6.25;2.92;;;4.90;96.70;;;;;;5144486;27;20492;-80
2022/02/09 06:31:16;;;;;;;5.35;3.78;;;4.80;96.70;;;;;;5141279;27;20039;-81
2022/02/09 06:33:43;;;;;;;5.97;3.63;;;4.70;96.70;;;;;;5141560;27;20436;-81
2022/02/09 06:36:14;;;;;;;5.53;3.22;;;4.70;96.70;;;;;;5127464;27;20039;-81
2022/02/09 06:38:43;;;;;;;5.72;3.05;;;4.70;96.70;;;;;;5140086;27;20035;-81
2022/02/09 06:41:11;;;;;;;6.63;3.58;;;4.70;96.70;;;;;;5141439;27;20038;-81
2022/02/09 06:43:39;;;;;;;5.93;3.50;;;4.80;96.70;;;;;;5139264;27;20046;-81
2022/02/09 06:46:08;;;;;;;6.88;3.50;;;4.90;96.70;;;;;;5138554;27;20510;-81
2022/02/09 06:48:36;;;;;;;6.80;3.40;;;4.90;96.70;;;;;;5137166;27;20051;-81
2022/02/09 06:51:09;;;;;;;6.07;3.65;;;4.80;96.70;;;;;;5140513;27;20399;-80
2022/02/09 06:53:46;;;;;;;6.63;2.88;;;4.80;96.70;;;;;;5117854;27;20043;-81
2022/02/09 06:56:25;;;;;;;7.45;3.90;;;4.70;96.70;;;;;;5126194;27;20050;-80
2022/02/09 06:59:08;;;;;;;8.10;3.40;;;4.70;96.70;;;;;;5116025;27;20132;-80
2022/02/09 07:01:36;;;;;;;7.88;3.38;;;4.60;96.70;;;;;;5133188;27;20045;-81
2022/02/09 07:04:04;;;;;;;6.30;3.45;;;4.70;96.70;;;;;;5153381;27;20066;-80
2022/02/09 07:06:33;;;;;;;7.90;3.58;;;4.80;96.70;;;;;;5138255;27;20077;-81
2022/02/09 07:09:01;;;;;;;6.90;3.70;;;4.90;96.70;;;;;;5136310;27;20084;-82
2022/02/09 07:11:30;;;;;;;9.20;3.75;;;4.90;96.70;;;;;;5131513;27;20046;-81
2022/02/09 07:13:58;;;;;;;10.27;3.67;;;4.80;96.70;;;;;;5137465;27;20156;-82
2022/02/09 07:16:28;;;;;;;9.20;5.00;;;4.80;96.70;;;;;;5142156;27;20034;-84
2022/02/09 07:18:56;;;;;;;9.82;4.97;;;4.90;96.70;;;;;;5138630;27;20043;-81
2022/02/09 07:21:28;;;;;;;10.45;6.03;;;5.00;96.70;;;;;;5143189;27;20039;-82
2022/02/09 07:23:59;;;;;;;18.15;8.57;;;5.30;96.70;;;;;;5123273;27;20043;-83
2022/02/09 07:27:11;;;;;;;23.40;11.15;;;5.30;96.70;;;;;;5141035;27;20048;-83
2022/02/09 07:29:18;;;;;;;18.73;10.88;;;5.40;96.70;;;;;;5138998;27;20367;-83
2022/02/09 07:31:47;;;;;;;22.55;12.60;;;5.30;96.70;;;;;;5137674;27;20103;-83
2022/02/09 07:34:15;;;;;;;34.80;18.40;;;5.30;96.70;;;;;;5143348;27;20027;-82
2022/02/09 07:36:45;;;;;;;31.55;15.77;;;5.50;96.70;;;;;;5135322;27;20556;-82
2022/02/09 07:39:13;;;;;;;29.65;13.70;;;5.70;96.70;;;;;;5141217;27;20038;-82
2022/02/09 07:41:46;;;;;;;22.67;13.52;;;5.70;96.70;;;;;;5139846;27;20030;-81
2022/02/09 07:44:44;;;;;;;19.50;10.25;;;5.80;96.70;;;;;;5138723;27;20389;-81
2022/02/09 07:47:32;;;;;;;17.52;9.63;;;5.80;96.70;;;;;;5152130;27;20499;-81
2022/02/09 07:52:51;;;;;;;13.80;9.00;;;5.90;96.70;;;;;;5137579;27;20070;-81
2022/02/09 07:55:20;;;;;;;14.43;7.65;;;6.10;96.70;;;;;;5138776;27;20047;-82
2022/02/09 07:57:51;;;;;;;15.25;7.43;;;6.10;96.70;;;;;;5136052;27;20035;-82
2022/02/09 08:00:19;;;;;;;11.43;7.53;;;6.20;96.70;;;;;;5126186;27;20063;-80
2022/02/09 08:02:49;;;;;;;13.75;6.53;;;6.00;96.70;;;;;;5142272;27;20161;-83
2022/02/09 08:05:17;;;;;;;11.40;5.90;;;6.00;96.70;;;;;;5143246;27;20844;-82
2022/02/09 08:07:45;;;;;;;11.18;5.68;;;6.20;96.70;;;;;;5141367;27;20067;-80
2022/02/09 08:11:12;;;;;;;10.25;5.97;;;6.40;96.70;;;;;;5135759;27;20027;-82
2022/02/09 08:29:48;;;;;;;9.38;5.45;;;6.90;96.70;;;;;;5142917;27;20050;-81
2022/02/09 08:34:53;;;;;;;7.32;5.20;;;7.10;96.70;;;;;;5154093;27;20054;-78
2022/02/09 08:37:21;;;;;;;9.52;5.85;;;7.10;96.70;;;;;;5136283;27;20126;-79
2022/02/09 08:39:50;;;;;;;12.32;5.63;;;7.30;96.70;;;;;;5136050;27;20052;-78
2022/02/09 08:42:18;;;;;;;7.70;5.15;;;7.30;96.70;;;;;;5137833;27;20031;-79
2022/02/09 08:44:47;;;;;;;7.95;5.65;;;7.40;96.70;;;;;;5138368;27;20035;-77
2022/02/09 08:47:32;;;;;;;;;;;7.50;96.70;;;;;;5127532;27;20146;-79
2022/02/09 08:50:01;;;;;;;8.68;5.38;;;7.50;96.70;;;;;;5143396;27;19922;-79
2022/02/09 08:52:29;;;;;;;10.60;6.07;;;7.60;96.70;;;;;;5141948;27;20515;-79
2022/02/09 08:54:58;;;;;;;11.68;5.95;;;7.60;96.70;;;;;;5143216;27;20036;-79
2022/02/09 08:57:28;;;;;;;7.93;5.43;;;7.70;96.70;;;;;;5143754;27;20138;-78
2022/02/09 09:00:13;;;;;;;12.10;6.35;;;7.70;96.70;;;;;;5142901;27;20165;-80
2022/02/09 09:02:46;;;;;;;11.00;5.85;;;7.80;96.70;;;;;;5137182;27;20034;-78
2022/02/09 09:05:29;;;;;;;9.93;5.78;;;7.70;96.70;;;;;;5138017;27;20043;-79
2022/02/09 09:08:12;;;;;;;9.60;5.60;;;7.80;96.70;;;;;;5142198;27;20115;-79
2022/02/09 09:10:48;;;;;;;12.10;6.60;;;7.90;96.70;;;;;;5125703;27;20057;-78
2022/02/09 09:19:24;;;;;;;11.10;6.28;;;8.10;96.70;;;;;;5140872;27;20125;-79
2022/02/09 09:31:01;;;;;;;;;;;8.30;96.70;;;;;;5140275;27;20104;-78
2022/02/09 09:58:01;;;;;;;5.47;4.85;;;9.00;96.70;;;;;;5139952;27;20046;-79
2022/02/09 10:04:20;;;;;;;7.78;4.75;;;9.80;96.70;;;;;;5140951;27;20149;-79
2022/02/09 10:34:05;;;;;;;11.45;5.55;;;10.90;96.70;;;;;;5144956;27;20062;-79
2022/02/09 10:36:49;;;;;;;10.25;5.43;;;11.00;96.70;;;;;;5141492;27;20062;-79
2022/02/09 10:39:23;;;;;;;14.95;5.75;;;11.10;96.70;;;;;;5141034;27;20665;-80
2022/02/09 10:41:55;;;;;;;10.23;6.35;;;11.20;96.70;;;;;;5123573;27;20055;-79
2022/02/09 10:44:26;;;;;;;12.02;6.65;;;11.30;96.70;;;;;;5137899;27;20107;-80
2022/02/09 10:46:57;;;;;;;15.05;7.18;;;11.40;96.70;;;;;;5139660;27;20115;-80
2022/02/09 10:49:30;;;;;;;10.05;6.47;;;11.40;96.70;;;;;;5139226;27;20050;-80
2022/02/09 10:54:30;;;;;;;11.85;6.60;;;11.60;96.70;;;;;;5138359;27;20548;-80
2022/02/09 10:57:00;;;;;;;15.88;7.00;;;11.70;96.70;;;;;;5125068;27;20092;-80
2022/02/09 10:59:31;;;;;;;17.42;8.23;;;11.80;96.70;;;;;;5140646;27;20051;-80
2022/02/09 11:02:01;;;;;;;17.95;8.77;;;11.90;96.70;;;;;;5135942;27;20404;-79
2022/02/09 11:04:31;;;;;;;14.27;8.40;;;12.00;96.70;;;;;;5124804;27;20635;-79
2022/02/09 11:06:59;;;;;;;15.82;8.82;;;12.10;96.70;;;;;;5134941;27;20042;-79
2022/02/09 11:09:30;;;;;;;20.27;10.65;;;12.10;96.70;;;;;;5139278;27;20396;-79
2022/02/09 11:11:58;;;;;;;15.45;8.82;;;12.30;96.70;;;;;;5136370;27;20043;-79
2022/02/09 11:14:27;;;;;;;18.20;8.32;;;12.50;96.70;;;;;;5124190;27;20034;-79
2022/02/09 11:16:58;;;;;;;15.57;6.78;;;12.70;96.70;;;;;;5141632;27;20038;-80
2022/02/09 11:19:32;;;;;;;17.65;7.22;;;12.80;96.70;;;;;;5129979;27;20035;-80
2022/02/09 11:22:07;;;;;;;13.25;5.32;;;13.00;96.70;;;;;;5130084;27;20042;-80
2022/02/09 11:24:43;;;;;;;13.70;4.72;;;13.20;96.70;;;;;;5124522;27;20778;-79
2022/02/09 11:27:17;;;;;;;13.07;4.70;;;13.30;96.70;;;;;;5136114;27;20046;-80
2022/02/09 11:30:03;;;;;;;13.38;4.60;;;13.50;96.70;;;;;;5120267;27;20035;-79
2022/02/09 11:32:37;;;;;;;15.77;4.28;;;13.60;96.70;;;;;;5137868;27;20456;-80
2022/02/09 11:35:41;;;;;;;13.85;4.47;;;13.70;96.70;;;;;;5133855;27;20095;-80
2022/02/09 11:38:24;;;;;;;19.35;5.10;;;13.70;96.70;;;;;;5134023;27;20042;-79
2022/02/09 11:43:53;;;;;;;13.43;5.65;;;13.90;96.70;;;;;;5138964;27;20043;-80
2022/02/09 11:47:17;;;;;;;15.25;4.75;;;14.00;96.70;;;;;;5113425;27;20572;-80
2022/02/09 11:50:02;;;;;;;16.92;5.40;;;14.00;96.70;;;;;;5141307;27;20050;-80
2022/02/09 12:09:42;;;;;;;15.68;4.50;;;14.70;96.70;;;;;;5071624;28;20063;-79
2022/02/09 12:12:19;;;;;;;7.80;3.00;;;14.80;96.70;;;;;;5038544;28;20202;-80
2022/02/09 12:14:55;;;;;;;;;;;14.90;96.70;;;;;;5060708;28;20047;-80
2022/02/09 12:17:31;;;;;;;9.45;3.30;;;15.00;96.70;;;;;;5048237;28;20133;-80
2022/02/09 12:20:08;;;;;;;11.55;3.70;;;15.10;96.70;;;;;;5060548;28;20068;-80
2022/02/09 12:22:45;;;;;;;9.23;3.72;;;15.00;96.70;;;;;;5059418;28;20071;-80
2022/02/09 12:25:13;;;;;;;11.32;3.10;;;15.10;96.70;;;;;;5065017;28;20035;-80
2022/02/09 12:27:48;;;;;;;9.70;3.30;;;15.20;96.70;;;;;;5055049;28;20538;-81
2022/02/09 12:30:21;;;;;;;11.20;2.28;;;15.40;96.70;;;;;;5046890;28;20048;-80
2022/02/09 12:32:49;;;;;;;10.52;2.90;;;15.40;96.70;;;;;;5137595;27;20534;-80
2022/02/09 12:35:21;;;;;;;7.97;2.13;;;15.50;96.70;;;;;;5139238;27;20110;-80
2022/02/09 12:37:52;;;;;;;9.65;2.97;;;15.50;96.70;;;;;;5142600;27;20611;-80
2022/02/09 12:40:22;;;;;;;10.43;2.40;;;15.60;96.70;;;;;;5138345;27;20047;-80
2022/02/09 12:42:53;;;;;;;9.43;2.47;;;15.60;96.70;;;;;;5137407;27;20590;-80
2022/02/09 12:45:26;;;;;;;9.27;2.92;;;15.60;96.70;;;;;;5142133;27;20043;-80
2022/02/09 12:47:56;;;;;;;11.77;2.30;;;15.50;96.70;;;;;;5137977;27;20468;-80
2022/02/09 12:50:30;;;;;;;11.95;2.65;;;15.10;96.70;;;;;;5142700;27;20059;-80
2022/02/09 12:53:00;;;;;;;11.95;2.95;;;15.10;96.70;;;;;;5136242;27;20551;-80
2022/02/09 12:55:30;;;;;;;15.93;3.08;;;15.20;96.70;;;;;;5141245;27;20304;-80
2022/02/09 12:58:04;;;;;;;9.15;2.67;;;15.20;96.70;;;;;;5139380;27;20041;-80
2022/02/09 13:00:40;;;;;;;10.80;2.83;;;15.30;96.70;;;;;;5155185;27;20054;-80
2022/02/09 13:03:11;;;;;;;14.45;2.85;;;15.40;96.70;;;;;;5138990;27;20039;-81
2022/02/09 13:05:43;;;;;;;11.43;2.67;;;15.50;96.70;;;;;;5125182;27;20042;-80
2022/02/09 13:08:11;;;;;;;10.90;2.20;;;15.70;96.70;;;;;;5138108;27;20448;-79
2022/02/09 13:10:39;;;;;;;10.35;2.40;;;15.90;96.70;;;;;;5144812;27;20042;-80
2022/02/09 13:13:13;;;;;;;10.40;2.63;;;16.00;96.70;;;;;;5124879;27;20046;-80
2022/02/09 13:19:03;;;;;;;11.98;3.67;;;16.10;96.70;;;;;;5140932;27;20043;-80
2022/02/09 14:11:34;;;;;;;11.98;2.80;;;15.60;96.70;;;;;;5144059;27;20031;-80
2022/02/09 14:55:30;;;;;;;11.38;2.33;;;14.40;96.70;;;;;;5137368;27;20146;-81
2022/02/09 15:00:38;;;;;;;14.10;3.40;;;14.40;96.70;;;;;;5136346;27;20508;-80
2022/02/09 15:03:24;;;;;;;16.00;2.72;;;14.40;96.70;;;;;;5144079;27;20038;-80
2022/02/09 15:13:42;;;;;;;8.68;2.88;;;14.50;96.70;;;;;;5132263;27;20561;-80
2022/02/09 15:16:28;;;;;;;14.75;2.70;;;14.50;96.70;;;;;;5134396;27;20492;-80
2022/02/09 15:22:07;;;;;;;10.23;2.88;;;14.50;96.70;;;;;;5140234;27;20434;-81
2022/02/09 15:24:45;;;;;;;9.85;2.65;;;14.50;96.70;;;;;;5119848;27;20054;-80
2022/02/09 15:27:21;;;;;;;9.43;2.53;;;14.40;96.70;;;;;;5123869;27;20042;-81
2022/02/09 15:29:50;;;;;;;10.23;2.10;;;14.40;96.70;;;;;;5136634;27;20043;-80
2022/02/09 15:32:27;;;;;;;10.48;2.30;;;14.40;96.70;;;;;;5139427;27;20481;-81
2022/02/09 15:35:13;;;;;;;11.95;2.75;;;14.40;96.70;;;;;;5141690;27;20042;-80
2022/02/09 15:38:03;;;;;;;11.45;2.92;;;14.80;96.70;;;;;;5135257;27;20046;-80
2022/02/09 15:40:50;;;;;;;10.85;2.88;;;15.80;96.70;;;;;;5132496;27;20107;-81
2022/02/09 15:43:45;;;;;;;8.43;2.63;;;16.40;96.70;;;;;;5125455;27;20043;-80
2022/02/09 16:08:42;;;;;;;14.93;4.07;;;14.50;96.70;;;;;;5094983;28;20487;-81
2022/02/09 16:22:07;;;;;;;13.85;4.53;;;13.30;96.70;;;;;;5098606;28;20052;-81
2022/02/09 16:46:36;;;;;;;13.68;3.85;;;12.40;96.70;;;;;;5088096;27;19927;-84
2022/02/09 16:51:45;;;;;;;13.93;3.80;;;12.30;96.70;;;;;;5139606;27;20035;-83
2022/02/09 16:54:33;;;;;;;9.07;3.20;;;12.20;96.70;;;;;;5135964;27;20103;-80
2022/02/09 17:08:21;;;;;;;15.02;4.13;;;12.20;96.70;;;;;;5139598;27;20054;-81
2022/02/09 17:19:01;;;;;;;16.60;3.90;;;11.80;96.70;;;;;;5143854;27;20087;-82
2022/02/09 17:21:32;;;;;;;15.43;4.38;;;11.80;96.70;;;;;;5141018;27;20058;-82
2022/02/09 17:24:02;;;;;;;13.02;4.18;;;11.80;96.70;;;;;;5162181;27;20051;-82
2022/02/09 17:26:32;;;;;;;21.08;5.03;;;11.80;96.70;;;;;;5137980;27;20035;-82
2022/02/09 17:29:04;;;;;;;13.63;4.68;;;11.70;96.70;;;;;;5140363;27;20248;-81
2022/02/09 17:34:41;;;;;;;18.88;6.07;;;11.70;96.70;;;;;;5134951;27;20042;-82
2022/02/09 17:38:25;;;;;;;19.20;4.82;;;11.60;96.70;;;;;;5145939;27;20048;-84
2022/02/09 17:54:07;;;;;;;19.90;8.23;;;11.50;96.70;;;;;;5142060;27;20281;-85
2022/02/09 17:56:47;;;;;;;20.17;7.43;;;11.50;96.70;;;;;;5139137;27;20043;-85
2022/02/09 17:59:20;;;;;;;19.48;6.70;;;11.50;96.70;;;;;;5140027;27;20047;-87
2022/02/09 18:01:50;;;;;;;16.08;6.72;;;11.50;96.70;;;;;;5138332;27;20053;-83
2022/02/09 18:04:21;;;;;;;17.13;7.82;;;11.50;96.70;;;;;;5143642;27;20091;-88
2022/02/09 18:07:01;;;;;;;21.42;10.70;;;11.50;96.70;;;;;;5138797;27;20076;-88
2022/02/09 18:09:43;;;;;;;25.88;12.25;;;11.50;96.70;;;;;;5142136;27;20051;-87
2022/02/09 18:29:03;;;;;;;28.05;14.30;;;11.50;96.70;;;;;;5143552;27;20034;-89
2022/02/09 18:31:40;;;;;;;22.65;11.65;;;11.50;96.70;;;;;;5147132;27;20027;-88
2022/02/09 18:40:31;;;;;;;42.15;24.10;;;11.40;96.70;;;;;;5144288;27;20073;-86
2022/02/09 18:42:51;;;;;;;59.67;30.27;;;11.30;96.70;;;;;;5142781;27;20100;-89
2022/02/09 18:48:09;;;;;;;21.15;10.23;;;11.30;96.70;;;;;;5136915;27;20126;-89
2022/02/09 19:02:04;;;;;;;21.45;5.88;;;11.10;96.70;;;;;;5141526;27;20038;-89
2022/02/09 19:04:44;;;;;;;15.88;4.80;;;11.10;96.70;;;;;;5127146;27;20076;-88
2022/02/09 19:18:29;;;;;;;17.55;5.18;;;11.10;96.70;;;;;;5112080;27;20051;-83
2022/02/09 19:26:16;;;;;;;21.80;6.97;;;11.00;96.70;;;;;;5123600;27;20105;-85
2022/02/09 19:31:57;;;;;;;17.65;5.63;;;10.90;96.70;;;;;;5140350;27;20106;-85
2022/02/09 19:48:01;;;;;;;20.10;10.00;;;10.90;96.70;;;;;;5142484;27;20054;-89
2022/02/09 19:53:29;;;;;;;32.50;16.60;;;10.90;96.70;;;;;;5138849;27;20039;-92
2022/02/09 19:56:06;;;;;;;25.83;14.18;;;10.90;96.70;;;;;;5138155;27;20058;-86
2022/02/09 19:59:19;;;;;;;28.92;13.02;;;10.80;96.70;;;;;;5142944;27;20530;-87
2022/02/09 20:01:35;;;;;;;34.58;15.80;;;10.80;96.70;;;;;;5121012;27;20080;-84
2022/02/09 20:04:07;;;;;;;28.13;17.35;;;10.70;96.70;;;;;;5129192;27;20047;-86
2022/02/09 20:06:35;;;;;;;34.90;22.08;;;10.70;96.70;;;;;;5155437;27;20084;-84
2022/02/09 20:09:05;;;;;;;40.72;23.17;;;10.70;96.70;;;;;;5139075;27;20079;-86
2022/02/09 20:11:35;;;;;;;38.47;22.55;;;10.70;96.70;;;;;;5138665;27;20088;-85
2022/02/09 20:14:04;;;;;;;34.50;21.27;;;10.70;96.70;;;;;;5123134;27;20066;-88
2022/02/09 20:16:33;;;;;;;41.08;22.05;;;10.70;96.70;;;;;;5136129;27;20624;-87
2022/02/09 20:19:01;;;;;;;27.02;16.05;;;10.60;96.70;;;;;;5138304;27;20035;-89
2022/02/09 20:21:32;;;;;;;26.63;13.73;;;10.60;96.70;;;;;;5125169;27;20034;-87
2022/02/09 20:24:02;;;;;;;21.10;9.55;;;10.50;96.70;;;;;;5121066;27;20043;-85
2022/02/09 20:26:32;;;;;;;23.25;10.82;;;10.60;96.70;;;;;;5136866;27;20133;-86
2022/02/09 20:29:09;;;;;;;25.80;11.18;;;10.60;96.70;;;;;;5135958;27;20066;-84
2022/02/09 20:31:50;;;;;;;25.20;10.20;;;10.60;96.70;;;;;;5139130;27;20038;-87
2022/02/09 20:34:30;;;;;;;20.77;9.25;;;10.60;96.70;;;;;;5131312;27;20039;-86
2022/02/09 20:37:02;;;;;;;12.73;6.55;;;10.60;96.70;;;;;;5144709;27;20103;-86
2022/02/09 20:39:37;;;;;;;22.05;9.35;;;10.50;96.70;;;;;;5142514;27;20051;-89
2022/02/09 20:42:14;;;;;;;15.82;7.30;;;10.50;96.70;;;;;;5126216;27;20653;-84
2022/02/09 20:44:50;;;;;;;17.63;6.28;;;10.50;96.70;;;;;;5143008;27;20065;-89
2022/02/09 20:47:19;;;;;;;;;;;10.40;96.70;;;;;;5145254;27;20051;-89
2022/02/09 20:49:47;;;;;;;21.27;6.90;;;10.40;96.70;;;;;;5142877;27;19923;-87
2022/02/09 20:52:17;;;;;;;16.95;6.20;;;10.40;96.70;;;;;;5127987;27;20304;-87
2022/02/09 20:54:46;;;;;;;14.30;5.60;;;10.50;96.70;;;;;;5141471;27;20039;-88
2022/02/09 20:57:15;;;;;;;14.77;6.03;;;10.50;96.70;;;;;;5145016;27;20116;-88
2022/02/09 20:59:48;;;;;;;14.90;6.22;;;10.40;96.70;;;;;;5145507;27;20095;-87
2022/02/09 21:02:47;;;;;;;16.38;6.45;;;10.40;96.70;;;;;;5123133;27;20053;-87
2022/02/09 21:10:49;;;;;;;15.63;5.93;;;10.20;96.70;;;;;;5150510;27;20582;-88
2022/02/09 21:16:19;;;;;;;11.80;4.45;;;10.30;96.70;;;;;;5139812;27;20460;-86
2022/02/09 21:26:54;;;;;;;17.98;6.80;;;10.10;96.70;;;;;;5146254;27;20054;-85
2022/02/09 21:57:28;;;;;;;16.13;5.55;;;10.10;96.70;;;;;;5090648;28;20044;-90
2022/02/09 22:19:31;;;;;;;22.25;10.48;;;9.90;96.70;;;;;;5099519;28;20058;-85
2022/02/09 22:27:40;;;;;;;21.17;11.02;;;9.80;96.70;;;;;;5100658;28;20055;-85
2022/02/09 22:55:03;;;;;;;17.25;8.30;;;9.40;96.70;;;;;;5139611;27;21007;-82
2022/02/09 22:57:51;;;;;;;18.90;7.43;;;9.50;96.70;;;;;;5140556;27;20066;-82
2022/02/09 23:00:41;;;;;;;18.48;6.95;;;9.50;96.70;;;;;;5139242;27;20057;-82
2022/02/09 23:03:15;;;;;;;16.67;5.95;;;9.50;96.70;;;;;;5121435;27;20039;-82
2022/02/09 23:13:43;;;;;;;16.42;5.55;;;9.40;96.70;;;;;;5137742;27;20434;-81
2022/02/09 23:58:42;;;;;;;15.52;5.95;;;8.90;96.70;;;;;;5037758;28;20050;-81
